Balkan, Minnesota
Current Conditions -  °F | °C
As of 7:53 AM on Monday 20 Oct 2014 (Local Time) from KHIB Reporting Station
Overcast Overcast  
Wind Chill: 38°   Ceiling: 3300
Heat Index: 42°   Visibility: 10mi
Dew Point: 39°   Wind: 6mph
Humidity: 89%   Direction: 310°NW
Pressure: 29.95"   Gusts: NA
Location:  47.5741°N, 92.8546°W
Report Text: KHIB 201253Z AUTO 31005KT 10SM OVC033 06/04 A2995 RMK AO2 SLP151 T00560039
Loading
Personal Weather Stations






























Interactive Weather Map
Tropical Storm Tracking
New forecast layout! Learn more

10-Day Weather Forecast

Advertisements
Track Severe Weather on mobile